Details From SBJU - Orlando Bezerra de Menezes
To SBRF - Recife Intl
Flight Number -
Tags generated
Created
Modified
Stats Distance 270 nm / 500 km
Max Altitude 35,000 ft / 10,668 m
Waypoints 4
Social Downloads 2
Likes 0
Share VATSIM

Download

Looking for another format? Having issues loading an existing format? Contact us
Advertisement - Login to hide

Notes

Basic altitude profile: - Ascent Rate: 2500ft/min - Ascent Speed: 250kts - Cruise Altitude: 35000ft - Cruise Speed: 447kts - Descent Rate: 1800ft/min - Descent Speed: 250kts Options: - Use NATs: yes - Use PACOTS: yes - Use low airways: no - Use high airways: yes

Route

SBJU OPSUS UZ7 VACAR SBRF

ID Type Via Altitude Latitude Longitude Leg Dist Tot Dist Heading (true) Name
O SBJU APT - 0 ft / 0 m -7.21896˚ -39.27010˚ - 0 nm - Orlando Bezerra de Menezes
OPSUS FIX - 35,000 ft / 10,668 m -7.11667˚ -37.59917˚ 99 nm 99 nm 87° / 86° -
VACAR FIX UZ7 (AWY-HI) 23,500 ft / 7,163 m -7.66533˚ -36.16867˚ 91 nm 191 nm 111° / 111° -
O SBRF APT - 0 ft / 0 m -8.12790˚ -34.92298˚ 79 nm 270 nm 111° / 110° Recife Intl

Altitude Profile

Advertisement - Login to hide

Weather


0- 5 10 15 20 25 30 35+ Temperature / ° C

Clouds and Precipitation
Forecast for 2017-12-17 06:00 UTC. Updated an hour ago

Ground ~20,000 ft ~40,000 ft Winds

SBJU

Details ICAO SBJU (JDO)
Name Orlando Bezerra de Menezes
Region Brazil
Timezone America/Fortaleza (UTC-3.0)
Stats Elevation 1,392 ft / 424 m (AMSL)
Location -7.218958° -39.270099°
Runways 1
Magnetic Variation 22.127° W

METAR

SBJU 170300Z 06012KT 9999 SCT020 29/18 Q1015

Decode

TAF

Not found

Departure Runways

ID Width Length Bearing (true) Bearing (mag) Surface Threshold Offset Overrun Length
13 148 ft / 45 m 5,900 ft / 1,798 m 110.75° 132.88° Asphalt 0 ft / 0 m 0 ft / 0 m
31 148 ft / 45 m 5,900 ft / 1,798 m 290.75° 312.88° Asphalt 0 ft / 0 m 0 ft / 0 m

SBRF

Details ICAO SBRF (REC)
Name Recife Intl
Region Brazil
Timezone America/Recife (UTC-3.0)
Stats Elevation 33 ft / 10 m (AMSL)
Location -8.127896° -34.922981°
Runways 2
Magnetic Variation 22.088° W

METAR

SBRF 170400Z 07005KT 9999 SCT018 27/23 Q1012

Decode

TAF

TAF SBRF 162200Z 1700/1724 10008KT 9999 SCT020 TN26/1708Z TX30/1715Z RMK PEU

Decode

Destination Runways

ID Width Length Bearing (true) Bearing (mag) Surface Threshold Offset Overrun Length
01 98 ft / 30 m 4,979 ft / 1,518 m 304.20° 326.29° Asphalt 300 ft / 91 m 0 ft / 0 m
18 148 ft / 45 m 9,915 ft / 3,022 m 161.91° 184.00° Asphalt 1,225 ft / 373 m 0 ft / 0 m
19 98 ft / 30 m 4,979 ft / 1,518 m 124.20° 146.29° Asphalt 300 ft / 91 m 0 ft / 0 m
36 148 ft / 45 m 9,915 ft / 3,022 m 341.91° 4.00° Asphalt 0 ft / 0 m 350 ft / 107 m

Approach Navaids

Runway Type Ident Frequency Range Bearing (true) Bearing (mag) Slope Elevation
18 Localiser IRF 110.30 MHz 18 nm / 33 km 161.91° 184.00° - 33 ft / 10 m (AMSL)
18 Glidescope IRF 110.30 MHz 10 nm / 19 km 161.91° 184.00° 3.00° 33 ft / 10 m (AMSL)

Popular Alternatives